createdAt,value
2023-05-16T00:02:18.757Z,10.58
2023-05-16T00:04:46.139Z,10.55
2023-05-16T00:07:12.776Z,10.59
2023-05-16T00:09:39.618Z,10.56
2023-05-16T00:12:06.546Z,10.62
2023-05-16T00:14:33.129Z,10.57
2023-05-16T00:16:59.670Z,10.51
2023-05-16T00:19:27.630Z,10.45
2023-05-16T00:21:54.051Z,10.47
2023-05-16T00:24:20.633Z,10.43
2023-05-16T00:26:47.917Z,10.40
2023-05-16T00:29:14.369Z,10.37
2023-05-16T00:31:40.820Z,10.39
2023-05-16T00:34:07.515Z,10.44
2023-05-16T00:36:35.986Z,10.37
2023-05-16T00:39:02.956Z,10.37
2023-05-16T00:41:29.469Z,10.32
2023-05-16T00:43:55.894Z,10.28
2023-05-16T00:46:22.392Z,10.22
2023-05-16T00:48:48.801Z,10.31
2023-05-16T00:51:16.229Z,10.25
2023-05-16T00:53:42.711Z,10.29
2023-05-16T00:56:09.310Z,10.21
2023-05-16T00:58:36.955Z,10.13
2023-05-16T01:01:06.297Z,10.15
2023-05-16T01:03:33.332Z,10.14
2023-05-16T01:06:00.085Z,10.18
2023-05-16T01:08:27.053Z,10.14
2023-05-16T01:11:17.750Z,10.14
2023-05-16T01:14:12.011Z,10.13
2023-05-16T01:17:00.151Z,10.09
2023-05-16T01:19:32.617Z,10.09
2023-05-16T01:22:17.174Z,10.08
2023-05-16T01:25:07.368Z,10.09
2023-05-16T01:27:35.807Z,10.07
2023-05-16T01:30:13.433Z,9.99
2023-05-16T01:32:40.072Z,10.00
2023-05-16T01:35:08.214Z,9.95
2023-05-16T01:38:05.044Z,9.91
2023-05-16T01:40:46.805Z,9.88
2023-05-16T01:43:17.168Z,9.87
2023-05-16T01:45:50.494Z,9.85
2023-05-16T01:48:22.899Z,9.83
2023-05-16T01:50:55.974Z,9.78
2023-05-16T01:53:26.847Z,9.76
2023-05-16T01:55:56.600Z,9.75
2023-05-16T01:58:25.551Z,9.83
2023-05-16T02:01:00.353Z,9.86
2023-05-16T02:03:27.128Z,9.83
2023-05-16T02:05:53.578Z,9.86
2023-05-16T02:08:20.746Z,9.85
2023-05-16T02:10:47.411Z,9.98
2023-05-16T02:13:14.182Z,9.93
2023-05-16T02:15:40.889Z,9.85
2023-05-16T02:18:07.878Z,9.91
2023-05-16T02:20:36.565Z,9.97
2023-05-16T02:23:03.380Z,9.99
2023-05-16T02:25:29.856Z,10.04
2023-05-16T02:27:56.542Z,10.02
2023-05-16T02:30:23.044Z,10.07
2023-05-16T02:32:49.630Z,10.05
2023-05-16T02:35:16.419Z,10.05
2023-05-16T02:37:46.753Z,10.07
2023-05-16T02:40:13.818Z,10.13
2023-05-16T02:42:41.327Z,10.10
2023-05-16T02:45:08.459Z,10.20
2023-05-16T02:47:35.001Z,10.22
2023-05-16T02:50:01.703Z,10.28
2023-05-16T02:52:28.161Z,10.25
2023-05-16T02:55:16.070Z,10.31
2023-05-16T02:57:42.064Z,10.34
2023-05-16T03:00:11.619Z,10.49
2023-05-16T03:02:39.876Z,10.56
2023-05-16T03:05:06.766Z,10.59
2023-05-16T03:07:33.732Z,10.53
2023-05-16T03:10:00.221Z,10.52
2023-05-16T03:12:26.819Z,10.56
2023-05-16T03:14:53.575Z,10.51
2023-05-16T03:17:20.567Z,10.58
2023-05-16T03:19:47.224Z,10.52
2023-05-16T03:22:13.719Z,10.61
2023-05-16T03:24:40.483Z,10.60
2023-05-16T03:27:07.048Z,10.64
2023-05-16T03:29:33.831Z,10.78
2023-05-16T03:32:00.643Z,10.82
2023-05-16T03:34:27.154Z,10.91
2023-05-16T03:36:55.730Z,11.02
2023-05-16T03:39:22.351Z,11.08
2023-05-16T03:41:48.835Z,11.19
2023-05-16T03:44:15.393Z,11.22
2023-05-16T03:46:41.941Z,11.27
2023-05-16T03:49:08.479Z,11.29
2023-05-16T03:51:34.964Z,11.37
2023-05-16T03:54:01.775Z,11.38
2023-05-16T03:56:28.486Z,11.44
2023-05-16T03:58:54.964Z,11.54
2023-05-16T04:01:21.525Z,11.59
2023-05-16T04:03:48.133Z,11.75
2023-05-16T04:06:19.786Z,11.81
2023-05-16T04:08:47.351Z,11.87
2023-05-16T04:11:15.796Z,11.93
2023-05-16T04:13:43.379Z,12.01
2023-05-16T04:16:10.038Z,12.00
2023-05-16T04:18:36.747Z,11.95
2023-05-16T04:21:03.945Z,11.98
2023-05-16T04:23:32.447Z,12.10
2023-05-16T04:26:00.299Z,11.94
2023-05-16T04:28:27.303Z,11.98
2023-05-16T04:30:54.954Z,12.08
2023-05-16T04:33:21.514Z,12.11
2023-05-16T04:35:48.613Z,12.10
2023-05-16T04:38:15.506Z,12.12
2023-05-16T04:40:42.196Z,12.10
2023-05-16T04:43:08.668Z,12.07
2023-05-16T04:45:37.556Z,12.10
2023-05-16T04:48:04.691Z,12.10
2023-05-16T04:50:31.396Z,12.06
2023-05-16T04:52:57.969Z,12.25
2023-05-16T04:55:24.725Z,12.20
2023-05-16T04:57:51.374Z,12.15
2023-05-16T05:00:18.352Z,12.23
2023-05-16T05:02:44.839Z,12.33
2023-05-16T05:05:11.927Z,12.31
2023-05-16T05:07:38.456Z,12.45
2023-05-16T05:10:07.685Z,12.23
2023-05-16T05:12:34.916Z,12.28
2023-05-16T05:15:02.677Z,12.42
2023-05-16T05:17:29.768Z,12.35
2023-05-16T05:22:25.443Z,12.20
2023-05-16T05:24:52.834Z,12.10
2023-05-16T05:27:32.360Z,11.92
2023-05-16T05:29:59.312Z,11.96
2023-05-16T05:32:26.312Z,11.94
2023-05-16T05:34:52.791Z,11.80
2023-05-16T05:37:20.444Z,11.84
2023-05-16T05:39:47.000Z,11.94
2023-05-16T05:42:13.731Z,11.96
2023-05-16T05:44:40.410Z,11.84
2023-05-16T05:47:07.450Z,11.84
2023-05-16T05:49:34.137Z,11.65
2023-05-16T05:52:00.634Z,11.50
2023-05-16T05:54:27.104Z,11.73
2023-05-16T05:56:54.819Z,11.72
2023-05-16T05:59:21.234Z,11.72
2023-05-16T06:01:52.496Z,11.70
2023-05-16T06:04:20.075Z,11.75
2023-05-16T06:06:46.917Z,11.80
2023-05-16T06:09:15.264Z,11.88
2023-05-16T06:11:46.126Z,11.82
2023-05-16T06:14:13.885Z,11.69
2023-05-16T06:16:41.935Z,11.56
2023-05-16T06:19:08.637Z,11.45
2023-05-16T06:21:35.091Z,10.98
2023-05-16T06:24:01.653Z,11.16
2023-05-16T06:26:28.113Z,10.96
2023-05-16T06:28:54.892Z,10.64
2023-05-16T06:31:21.674Z,10.74
2023-05-16T06:33:48.229Z,10.79
2023-05-16T06:36:15.799Z,10.88
2023-05-16T06:38:42.264Z,10.84
2023-05-16T06:41:08.839Z,10.93
2023-05-16T06:43:35.679Z,10.95
2023-05-16T06:46:03.930Z,10.81
2023-05-16T06:48:35.578Z,11.07
2023-05-16T06:51:02.139Z,11.11
2023-05-16T06:53:29.559Z,11.12
2023-05-16T06:55:56.164Z,11.27
2023-05-16T06:58:22.783Z,11.29
2023-05-16T07:00:51.268Z,11.10
2023-05-16T07:03:19.174Z,11.35
2023-05-16T07:05:45.763Z,11.43
2023-05-16T07:08:12.393Z,11.48
2023-05-16T07:10:39.889Z,11.62
2023-05-16T07:13:06.920Z,11.71
2023-05-16T07:15:33.415Z,11.63
2023-05-16T07:17:59.839Z,11.65
2023-05-16T07:20:26.538Z,11.61
2023-05-16T07:22:53.289Z,11.50
2023-05-16T07:25:19.807Z,11.57
2023-05-16T07:27:47.324Z,11.41
2023-05-16T07:30:14.489Z,11.45
2023-05-16T07:32:41.624Z,11.50
2023-05-16T07:35:08.616Z,11.41
2023-05-16T07:37:35.980Z,11.39
2023-05-16T07:40:03.742Z,11.48
2023-05-16T07:42:31.490Z,11.21
2023-05-16T07:44:58.011Z,11.20
2023-05-16T07:47:24.590Z,11.03
2023-05-16T07:49:51.294Z,11.13
2023-05-16T07:52:17.853Z,11.09
2023-05-16T07:54:46.597Z,11.20
2023-05-16T07:57:15.249Z,11.02
2023-05-16T07:59:42.429Z,11.14
2023-05-16T08:02:09.347Z,11.20
2023-05-16T08:04:37.662Z,11.19
2023-05-16T08:07:04.380Z,11.19
2023-05-16T08:09:31.373Z,11.25
2023-05-16T08:11:58.001Z,11.22
2023-05-16T08:14:24.576Z,11.26
2023-05-16T08:16:51.166Z,11.20
2023-05-16T08:19:17.719Z,11.19
2023-05-16T08:21:44.296Z,11.21
2023-05-16T08:24:11.994Z,11.27
2023-05-16T08:26:38.636Z,11.18
2023-05-16T08:29:05.103Z,11.13
2023-05-16T08:31:33.017Z,11.16
2023-05-16T08:34:01.602Z,11.26
2023-05-16T08:36:28.554Z,11.20
2023-05-16T08:38:55.053Z,11.30
2023-05-16T08:41:22.115Z,11.38
2023-05-16T08:43:48.949Z,11.45
2023-05-16T08:46:18.860Z,11.24
2023-05-16T08:48:46.368Z,11.44
2023-05-16T08:51:14.837Z,11.29
2023-05-16T08:53:45.712Z,11.44
2023-05-16T08:56:13.545Z,11.44
2023-05-16T08:58:42.266Z,11.66
2023-05-16T09:01:09.987Z,11.51
2023-05-16T09:03:37.429Z,11.62
2023-05-16T09:06:08.160Z,11.65
2023-05-16T09:08:35.191Z,11.47
2023-05-16T09:11:02.903Z,11.53
2023-05-16T09:13:29.460Z,11.51
2023-05-16T09:16:15.926Z,11.47
2023-05-16T09:19:02.695Z,11.43
2023-05-16T09:21:32.966Z,11.42
2023-05-16T09:24:07.405Z,11.25
2023-05-16T09:26:36.853Z,11.38
2023-05-16T09:29:13.270Z,11.32
2023-05-16T09:31:40.613Z,11.51
2023-05-16T09:34:09.037Z,11.55
2023-05-16T09:36:36.026Z,11.49
2023-05-16T09:39:03.324Z,11.44
2023-05-16T09:41:34.185Z,11.65
2023-05-16T09:44:04.121Z,11.70
2023-05-16T09:46:31.504Z,12.00
2023-05-16T09:48:58.482Z,11.79
2023-05-16T09:51:28.750Z,12.01
2023-05-16T09:53:55.528Z,12.01
2023-05-16T09:56:22.053Z,12.02
2023-05-16T09:58:52.193Z,11.93
2023-05-16T10:01:18.815Z,11.91
2023-05-16T10:03:45.797Z,11.98
2023-05-16T10:06:13.733Z,12.10
2023-05-16T10:08:42.422Z,12.14
2023-05-16T10:11:09.932Z,12.26
2023-05-16T10:13:37.823Z,12.33
2023-05-16T10:16:11.323Z,12.49
2023-05-16T10:18:39.036Z,12.54
2023-05-16T10:21:10.442Z,12.60
2023-05-16T10:23:41.743Z,12.61
2023-05-16T10:26:09.019Z,12.65
2023-05-16T10:28:39.884Z,12.64
2023-05-16T10:31:08.014Z,12.63
2023-05-16T10:33:35.918Z,12.71
2023-05-16T10:36:03.726Z,12.62
2023-05-16T10:38:31.417Z,12.49
2023-05-16T10:40:58.093Z,12.19
2023-05-16T10:43:26.938Z,12.27
2023-05-16T10:45:58.122Z,12.45
2023-05-16T10:48:32.330Z,12.46
2023-05-16T10:50:59.006Z,12.52
2023-05-16T10:53:28.576Z,12.28
2023-05-16T10:56:01.535Z,12.64
2023-05-16T10:58:34.084Z,12.92
2023-05-16T11:01:22.716Z,13.27
2023-05-16T11:04:02.784Z,13.28
2023-05-16T11:06:33.376Z,13.45
2023-05-16T11:09:10.369Z,13.66
2023-05-16T11:11:52.484Z,13.84
2023-05-16T11:14:23.249Z,14.13
2023-05-16T11:17:00.155Z,14.34
2023-05-16T11:19:36.455Z,14.37
2023-05-16T11:22:31.096Z,14.34
2023-05-16T11:25:01.877Z,13.98
2023-05-16T11:27:30.981Z,13.88
2023-05-16T11:30:22.359Z,14.13
2023-05-16T11:32:51.049Z,14.47
2023-05-16T11:35:21.380Z,14.64
2023-05-16T11:37:50.609Z,14.94
2023-05-16T11:40:17.579Z,15.41
2023-05-16T11:42:45.985Z,15.81
2023-05-16T11:45:24.704Z,16.32
2023-05-16T11:47:51.634Z,16.65
2023-05-16T11:50:19.994Z,16.58
2023-05-16T11:52:53.890Z,16.02
2023-05-16T11:55:36.839Z,16.08
2023-05-16T11:58:08.052Z,15.78
2023-05-16T12:00:34.686Z,15.93
2023-05-16T12:03:06.348Z,15.70
2023-05-16T12:05:35.034Z,15.70
2023-05-16T12:08:02.873Z,15.70
2023-05-16T12:10:31.737Z,15.74
2023-05-16T12:12:58.904Z,15.65
2023-05-16T12:15:25.718Z,15.66
2023-05-16T12:17:52.834Z,15.78
2023-05-16T12:20:19.463Z,16.10
2023-05-16T12:22:46.945Z,16.06
2023-05-16T12:25:30.233Z,15.82
2023-05-16T12:27:59.758Z,15.69
2023-05-16T12:30:28.197Z,15.41
2023-05-16T12:33:06.009Z,15.41
2023-05-16T12:35:35.379Z,15.02
2023-05-16T12:38:07.632Z,14.94
2023-05-16T12:40:37.086Z,14.77
2023-05-16T12:43:03.813Z,14.76
2023-05-16T12:45:31.213Z,14.84
2023-05-16T12:48:05.140Z,14.79
2023-05-16T12:50:33.234Z,14.86
2023-05-16T12:53:00.832Z,15.14
2023-05-16T12:55:27.438Z,15.07
2023-05-16T12:57:56.519Z,14.82
2023-05-16T13:00:25.362Z,14.71
2023-05-16T13:02:52.432Z,14.68
2023-05-16T13:05:23.437Z,14.69
2023-05-16T13:07:53.643Z,14.62
2023-05-16T13:10:20.365Z,14.60
2023-05-16T13:12:47.436Z,14.46
2023-05-16T13:15:14.166Z,14.49
2023-05-16T13:17:42.335Z,14.49
2023-05-16T13:20:10.698Z,14.51
2023-05-16T13:22:37.693Z,14.52
2023-05-16T13:25:06.133Z,14.70
2023-05-16T13:27:33.523Z,14.79
2023-05-16T13:30:00.777Z,14.88
2023-05-16T13:32:27.510Z,15.11
2023-05-16T13:34:58.182Z,15.33
2023-05-16T13:37:32.934Z,15.63
2023-05-16T13:40:01.110Z,15.76
2023-05-16T13:42:28.648Z,15.74
2023-05-16T13:44:55.167Z,15.87
2023-05-16T13:47:21.726Z,15.59
2023-05-16T13:49:48.866Z,15.49
2023-05-16T13:52:15.423Z,15.23
2023-05-16T13:54:41.946Z,14.86
2023-05-16T13:57:08.747Z,14.49
2023-05-16T13:59:59.198Z,14.32
2023-05-16T14:02:22.221Z,14.11
2023-05-16T14:04:50.080Z,13.99
2023-05-16T14:07:16.985Z,14.13
2023-05-16T14:09:44.580Z,13.84
2023-05-16T14:12:12.380Z,13.94
2023-05-16T14:14:39.095Z,14.01
2023-05-16T14:17:06.776Z,13.98
2023-05-16T14:19:34.271Z,14.18
2023-05-16T14:22:00.906Z,14.13
2023-05-16T14:24:27.467Z,14.18
2023-05-16T14:26:58.165Z,13.84
2023-05-16T14:29:25.687Z,13.74
2023-05-16T14:31:53.141Z,13.43
2023-05-16T14:34:22.267Z,13.52
2023-05-16T14:36:49.045Z,13.51
2023-05-16T14:39:16.167Z,13.36
2023-05-16T14:41:42.752Z,13.38
2023-05-16T14:44:09.791Z,13.38
2023-05-16T14:46:36.387Z,13.30
2023-05-16T14:49:03.947Z,13.30
2023-05-16T14:51:31.718Z,13.12
2023-05-16T14:53:58.248Z,13.16
2023-05-16T14:56:26.891Z,13.28
2023-05-16T14:58:55.607Z,13.16
2023-05-16T15:01:22.691Z,13.23
2023-05-16T15:03:55.452Z,13.07
2023-05-16T15:06:24.028Z,13.25
2023-05-16T15:08:50.844Z,13.24
2023-05-16T15:11:17.512Z,13.16
2023-05-16T15:13:44.087Z,13.35
2023-05-16T15:16:11.162Z,13.38
2023-05-16T15:18:37.918Z,13.39
2023-05-16T15:21:04.637Z,13.38
2023-05-16T15:23:31.342Z,13.39
2023-05-16T15:25:57.885Z,13.40
2023-05-16T15:28:24.369Z,13.32
2023-05-16T15:30:51.273Z,13.35
2023-05-16T15:33:17.857Z,13.37
2023-05-16T15:35:44.511Z,13.44
2023-05-16T15:38:11.042Z,13.57
2023-05-16T15:40:38.504Z,13.65
2023-05-16T15:43:05.095Z,13.76
2023-05-16T15:45:32.508Z,13.85
2023-05-16T15:47:59.100Z,13.98
2023-05-16T15:50:25.732Z,14.32
2023-05-16T15:52:52.303Z,14.52
2023-05-16T15:55:19.368Z,14.47
2023-05-16T15:57:46.567Z,14.71
2023-05-16T16:00:13.666Z,14.75
2023-05-16T16:02:42.136Z,14.47
2023-05-16T16:05:09.042Z,14.75
2023-05-16T16:07:35.597Z,14.59
2023-05-16T16:10:02.168Z,14.76
2023-05-16T16:12:32.029Z,14.83
2023-05-16T16:14:58.641Z,14.70
2023-05-16T16:17:25.312Z,14.67
2023-05-16T16:19:51.873Z,14.97
2023-05-16T16:22:19.772Z,15.04
2023-05-16T16:24:47.558Z,15.21
2023-05-16T16:27:14.326Z,15.36
2023-05-16T16:29:40.932Z,15.50
2023-05-16T16:32:07.582Z,15.37
2023-05-16T16:34:34.190Z,15.42
2023-05-16T16:37:00.782Z,15.44
2023-05-16T16:39:27.342Z,15.19
2023-05-16T16:41:54.222Z,15.45
2023-05-16T16:44:20.877Z,15.33
2023-05-16T16:46:47.428Z,15.36
2023-05-16T16:49:13.913Z,15.61
2023-05-16T16:51:40.516Z,15.91
2023-05-16T16:54:07.226Z,15.92
2023-05-16T16:56:34.161Z,16.01
2023-05-16T16:59:00.989Z,16.01
2023-05-16T17:01:35.175Z,15.69
2023-05-16T17:04:02.196Z,15.70
2023-05-16T17:06:30.126Z,16.06
2023-05-16T17:08:57.281Z,15.97
2023-05-16T17:11:23.929Z,15.99
2023-05-16T17:13:51.246Z,15.73
2023-05-16T17:16:17.850Z,15.58
2023-05-16T17:18:44.594Z,15.47
2023-05-16T17:21:12.976Z,15.25
2023-05-16T17:23:41.724Z,15.32
2023-05-16T17:26:10.002Z,15.30
2023-05-16T17:28:36.502Z,15.29
2023-05-16T17:31:04.048Z,15.28
2023-05-16T17:33:31.189Z,15.26
2023-05-16T17:35:57.856Z,15.11
2023-05-16T17:38:24.394Z,15.14
2023-05-16T17:40:50.974Z,15.09
2023-05-16T17:43:17.642Z,15.00
2023-05-16T17:45:44.240Z,15.06
2023-05-16T17:48:10.852Z,15.15
2023-05-16T17:50:37.514Z,15.07
2023-05-16T17:53:04.829Z,15.01
2023-05-16T17:55:31.540Z,14.92
2023-05-16T17:57:58.185Z,14.86
2023-05-16T18:00:25.072Z,14.68
2023-05-16T18:02:52.291Z,14.65
2023-05-16T18:05:18.935Z,14.61
2023-05-16T18:07:45.653Z,14.54
2023-05-16T18:10:13.540Z,14.41
2023-05-16T18:12:41.755Z,14.38
2023-05-16T18:15:10.583Z,14.41
2023-05-16T18:17:37.579Z,14.34
2023-05-16T18:20:09.739Z,14.26
2023-05-16T18:22:37.456Z,14.23
2023-05-16T18:25:05.759Z,14.22
2023-05-16T18:27:33.147Z,14.12
2023-05-16T18:30:00.399Z,14.00
2023-05-16T18:32:28.032Z,13.86
2023-05-16T18:34:54.679Z,13.71
2023-05-16T18:37:21.214Z,13.58
2023-05-16T18:39:51.043Z,13.45
2023-05-16T18:42:17.559Z,13.31
2023-05-16T18:44:44.753Z,13.17
2023-05-16T18:47:12.034Z,13.02
2023-05-16T18:49:39.305Z,12.92
2023-05-16T18:52:10.765Z,12.74
2023-05-16T18:54:38.721Z,12.57
2023-05-16T18:57:06.590Z,12.45
2023-05-16T18:59:34.330Z,12.27
2023-05-16T19:02:01.088Z,12.20
2023-05-16T19:04:27.814Z,12.13
2023-05-16T19:06:56.298Z,11.97
2023-05-16T19:09:23.316Z,11.88
2023-05-16T19:11:50.059Z,11.61
2023-05-16T19:14:16.815Z,11.37
2023-05-16T19:16:43.692Z,11.13
2023-05-16T19:19:10.641Z,11.12
2023-05-16T19:21:37.954Z,10.97
2023-05-16T19:24:04.882Z,10.87
2023-05-16T19:26:31.594Z,10.71
2023-05-16T19:29:01.410Z,10.52
2023-05-16T19:31:28.099Z,10.61
2023-05-16T19:33:54.643Z,10.48
2023-05-16T19:36:21.383Z,10.36
2023-05-16T19:38:48.031Z,10.21
2023-05-16T19:41:14.610Z,10.14
2023-05-16T19:43:41.426Z,10.06
2023-05-16T19:46:07.958Z,10.13
2023-05-16T19:48:35.522Z,10.07
2023-05-16T19:51:02.424Z,10.00
2023-05-16T19:53:30.048Z,9.86
2023-05-16T19:55:56.784Z,9.74
2023-05-16T19:58:23.376Z,9.65
2023-05-16T20:00:50.968Z,9.56
2023-05-16T20:03:17.702Z,9.54
2023-05-16T20:05:44.338Z,9.55
2023-05-16T20:08:12.106Z,9.52
2023-05-16T20:10:39.762Z,9.43
2023-05-16T20:13:06.986Z,9.26
2023-05-16T20:15:33.628Z,9.22
2023-05-16T20:18:00.271Z,9.21
2023-05-16T20:20:26.955Z,9.28
2023-05-16T20:22:53.374Z,9.19
2023-05-16T20:25:19.967Z,9.14
2023-05-16T20:27:46.492Z,9.09
2023-05-16T20:30:13.427Z,9.07
2023-05-16T20:32:40.437Z,9.02
2023-05-16T20:35:10.020Z,9.11
2023-05-16T20:37:36.785Z,9.13
2023-05-16T20:40:03.679Z,9.07
2023-05-16T20:42:30.594Z,9.08
2023-05-16T20:44:57.158Z,9.04
2023-05-16T20:47:23.858Z,8.97
2023-05-16T20:49:50.308Z,9.05
2023-05-16T20:52:16.734Z,8.95
2023-05-16T20:54:43.168Z,8.99
2023-05-16T20:57:09.770Z,8.91
2023-05-16T20:59:37.587Z,8.90
2023-05-16T21:02:05.750Z,8.84
2023-05-16T21:04:32.253Z,8.85
2023-05-16T21:06:58.750Z,8.89
2023-05-16T21:09:25.257Z,8.91
2023-05-16T21:11:51.790Z,8.78
2023-05-16T21:14:18.373Z,8.84
2023-05-16T21:16:44.955Z,8.78
2023-05-16T21:19:11.492Z,8.77
2023-05-16T21:21:38.121Z,8.71
2023-05-16T21:24:05.419Z,8.72
2023-05-16T21:26:31.884Z,8.66
2023-05-16T21:28:58.683Z,8.71
2023-05-16T21:31:25.294Z,8.61
2023-05-16T21:33:52.418Z,8.59
2023-05-16T21:36:20.310Z,8.62
2023-05-16T21:38:47.363Z,8.57
2023-05-16T21:41:14.546Z,8.54
2023-05-16T21:43:41.114Z,8.43
2023-05-16T21:46:07.612Z,8.43
2023-05-16T21:48:34.149Z,8.43
2023-05-16T21:51:00.832Z,8.39
2023-05-16T21:53:27.357Z,8.35
2023-05-16T21:55:53.827Z,8.23
2023-05-16T21:58:20.525Z,8.14
2023-05-16T22:00:46.947Z,8.15
2023-05-16T22:03:13.554Z,8.12
2023-05-16T22:05:40.072Z,7.90
2023-05-16T22:08:07.882Z,7.95
2023-05-16T22:10:34.420Z,7.79
2023-05-16T22:13:00.958Z,7.67
2023-05-16T22:15:27.563Z,7.65
2023-05-16T22:17:54.508Z,7.67
2023-05-16T22:20:21.554Z,7.68
2023-05-16T22:22:49.206Z,7.72
2023-05-16T22:25:15.732Z,7.72
2023-05-16T22:27:42.494Z,7.64
2023-05-16T22:30:09.479Z,7.63
2023-05-16T22:32:36.065Z,7.57
2023-05-16T22:35:02.630Z,7.58
2023-05-16T22:37:29.130Z,7.63
2023-05-16T22:39:57.001Z,7.56
2023-05-16T22:42:23.468Z,7.47
2023-05-16T22:44:50.143Z,7.47
2023-05-16T22:47:16.558Z,7.38
2023-05-16T22:49:43.070Z,7.26
2023-05-16T22:52:09.489Z,7.18
2023-05-16T22:54:35.965Z,7.06
2023-05-16T22:57:02.412Z,7.09
2023-05-16T22:59:29.018Z,6.97
2023-05-16T23:01:55.630Z,6.88
2023-05-16T23:04:22.228Z,6.82
2023-05-16T23:06:48.723Z,6.74
2023-05-16T23:09:15.281Z,6.73
2023-05-16T23:11:41.774Z,6.62
2023-05-16T23:14:08.586Z,6.62
2023-05-16T23:16:35.450Z,6.49
2023-05-16T23:19:02.160Z,6.38
2023-05-16T23:21:29.386Z,6.25
2023-05-16T23:23:55.996Z,6.14
2023-05-16T23:26:22.868Z,6.06
2023-05-16T23:28:50.901Z,5.95
2023-05-16T23:31:17.736Z,5.86
2023-05-16T23:33:44.716Z,5.83
2023-05-16T23:36:11.663Z,5.74
2023-05-16T23:38:38.438Z,5.72
2023-05-16T23:41:04.940Z,5.63
2023-05-16T23:43:31.459Z,5.57
2023-05-16T23:45:59.233Z,5.66
2023-05-16T23:48:25.991Z,5.56
2023-05-16T23:50:53.120Z,5.53
2023-05-16T23:53:20.007Z,5.64
2023-05-16T23:55:46.776Z,5.51
2023-05-16T23:58:19.673Z,5.59
